sensor_id;sensor_type;location;lat;lon;timestamp;P1;durP1;ratioP1;P2;durP2;ratioP2
29362;SDS011;16349;53.672;10.014;2023-12-20T00:02:19;14.37;;;2.00;;
29362;SDS011;16349;53.672;10.014;2023-12-20T00:04:46;11.87;;;2.57;;
29362;SDS011;16349;53.672;10.014;2023-12-20T00:07:15;10.73;;;1.70;;
29362;SDS011;16349;53.672;10.014;2023-12-20T00:09:42;7.10;;;1.60;;
29362;SDS011;16349;53.672;10.014;2023-12-20T00:12:09;8.43;;;1.47;;
29362;SDS011;16349;53.672;10.014;2023-12-20T00:14:36;15.10;;;1.77;;
29362;SDS011;16349;53.672;10.014;2023-12-20T00:17:03;7.40;;;1.27;;
29362;SDS011;16349;53.672;10.014;2023-12-20T00:19:30;13.63;;;2.10;;
29362;SDS011;16349;53.672;10.014;2023-12-20T00:21:57;11.67;;;1.70;;
29362;SDS011;16349;53.672;10.014;2023-12-20T00:24:26;5.40;;;1.43;;
29362;SDS011;16349;53.672;10.014;2023-12-20T00:26:53;13.73;;;1.40;;
29362;SDS011;16349;53.672;10.014;2023-12-20T00:29:19;12.20;;;1.63;;
29362;SDS011;16349;53.672;10.014;2023-12-20T00:31:46;8.40;;;1.67;;
29362;SDS011;16349;53.672;10.014;2023-12-20T00:34:13;8.63;;;1.67;;
29362;SDS011;16349;53.672;10.014;2023-12-20T00:36:40;6.27;;;1.60;;
29362;SDS011;16349;53.672;10.014;2023-12-20T00:39:06;12.23;;;1.73;;
29362;SDS011;16349;53.672;10.014;2023-12-20T00:41:35;8.37;;;1.63;;
29362;SDS011;16349;53.672;10.014;2023-12-20T00:44:02;8.43;;;1.40;;
29362;SDS011;16349;53.672;10.014;2023-12-20T00:46:29;10.33;;;2.17;;
29362;SDS011;16349;53.672;10.014;2023-12-20T00:48:56;10.23;;;1.10;;
29362;SDS011;16349;53.672;10.014;2023-12-20T00:51:22;8.37;;;1.40;;
29362;SDS011;16349;53.672;10.014;2023-12-20T00:53:50;7.60;;;1.67;;
29362;SDS011;16349;53.672;10.014;2023-12-20T00:56:19;11.77;;;1.60;;
29362;SDS011;16349;53.672;10.014;2023-12-20T00:58:48;9.87;;;1.70;;
29362;SDS011;16349;53.672;10.014;2023-12-20T01:01:15;11.20;;;2.00;;
29362;SDS011;16349;53.672;10.014;2023-12-20T01:03:42;9.03;;;1.57;;
29362;SDS011;16349;53.672;10.014;2023-12-20T01:06:09;6.50;;;1.50;;
29362;SDS011;16349;53.672;10.014;2023-12-20T01:08:37;6.90;;;1.80;;
29362;SDS011;16349;53.672;10.014;2023-12-20T01:11:04;10.53;;;1.90;;
29362;SDS011;16349;53.672;10.014;2023-12-20T01:13:31;8.80;;;1.17;;
29362;SDS011;16349;53.672;10.014;2023-12-20T01:15:59;7.37;;;1.37;;
29362;SDS011;16349;53.672;10.014;2023-12-20T01:18:26;10.47;;;2.97;;
29362;SDS011;16349;53.672;10.014;2023-12-20T01:20:53;10.20;;;1.73;;
29362;SDS011;16349;53.672;10.014;2023-12-20T01:23:20;9.47;;;1.77;;
29362;SDS011;16349;53.672;10.014;2023-12-20T01:25:47;6.00;;;1.50;;
29362;SDS011;16349;53.672;10.014;2023-12-20T01:28:15;7.10;;;1.53;;
29362;SDS011;16349;53.672;10.014;2023-12-20T01:30:42;11.63;;;1.97;;
29362;SDS011;16349;53.672;10.014;2023-12-20T01:33:10;9.43;;;1.60;;
29362;SDS011;16349;53.672;10.014;2023-12-20T01:35:37;13.67;;;2.20;;
29362;SDS011;16349;53.672;10.014;2023-12-20T01:38:04;9.33;;;2.20;;
29362;SDS011;16349;53.672;10.014;2023-12-20T01:40:31;6.17;;;1.20;;
29362;SDS011;16349;53.672;10.014;2023-12-20T01:42:58;15.30;;;1.60;;
29362;SDS011;16349;53.672;10.014;2023-12-20T01:45:25;11.00;;;2.20;;
29362;SDS011;16349;53.672;10.014;2023-12-20T01:47:52;9.10;;;2.00;;
29362;SDS011;16349;53.672;10.014;2023-12-20T01:50:21;5.73;;;1.47;;
29362;SDS011;16349;53.672;10.014;2023-12-20T01:52:48;13.43;;;2.10;;
29362;SDS011;16349;53.672;10.014;2023-12-20T01:55:17;10.23;;;1.63;;
29362;SDS011;16349;53.672;10.014;2023-12-20T01:57:44;21.00;;;2.23;;
29362;SDS011;16349;53.672;10.014;2023-12-20T02:00:12;14.20;;;2.17;;
29362;SDS011;16349;53.672;10.014;2023-12-20T02:02:40;11.43;;;1.40;;
29362;SDS011;16349;53.672;10.014;2023-12-20T02:05:07;6.53;;;1.87;;
29362;SDS011;16349;53.672;10.014;2023-12-20T02:07:36;8.47;;;1.83;;
29362;SDS011;16349;53.672;10.014;2023-12-20T02:10:03;7.93;;;1.70;;
29362;SDS011;16349;53.672;10.014;2023-12-20T02:12:30;6.97;;;1.63;;
29362;SDS011;16349;53.672;10.014;2023-12-20T02:14:57;10.27;;;1.77;;
29362;SDS011;16349;53.672;10.014;2023-12-20T02:17:24;10.97;;;1.87;;
29362;SDS011;16349;53.672;10.014;2023-12-20T02:19:52;14.43;;;2.00;;
29362;SDS011;16349;53.672;10.014;2023-12-20T02:22:20;5.10;;;1.57;;
29362;SDS011;16349;53.672;10.014;2023-12-20T02:24:47;9.07;;;1.30;;
29362;SDS011;16349;53.672;10.014;2023-12-20T02:27:13;11.30;;;1.90;;
29362;SDS011;16349;53.672;10.014;2023-12-20T02:29:42;5.73;;;1.27;;
29362;SDS011;16349;53.672;10.014;2023-12-20T02:32:09;9.67;;;1.60;;
29362;SDS011;16349;53.672;10.014;2023-12-20T02:34:36;8.47;;;1.20;;
29362;SDS011;16349;53.672;10.014;2023-12-20T02:37:03;8.93;;;1.20;;
29362;SDS011;16349;53.672;10.014;2023-12-20T02:39:31;9.77;;;1.60;;
29362;SDS011;16349;53.672;10.014;2023-12-20T02:41:58;16.53;;;1.53;;
29362;SDS011;16349;53.672;10.014;2023-12-20T02:44:25;5.90;;;1.33;;
29362;SDS011;16349;53.672;10.014;2023-12-20T02:46:51;10.57;;;1.40;;
29362;SDS011;16349;53.672;10.014;2023-12-20T02:49:18;7.73;;;1.63;;
29362;SDS011;16349;53.672;10.014;2023-12-20T02:51:45;8.33;;;2.03;;
29362;SDS011;16349;53.672;10.014;2023-12-20T02:54:12;10.30;;;1.63;;
29362;SDS011;16349;53.672;10.014;2023-12-20T02:56:40;8.17;;;1.53;;
29362;SDS011;16349;53.672;10.014;2023-12-20T02:59:07;5.50;;;1.03;;
29362;SDS011;16349;53.672;10.014;2023-12-20T03:01:34;3.70;;;1.53;;
29362;SDS011;16349;53.672;10.014;2023-12-20T03:04:01;9.07;;;1.27;;
29362;SDS011;16349;53.672;10.014;2023-12-20T03:06:28;13.17;;;2.07;;
29362;SDS011;16349;53.672;10.014;2023-12-20T03:08:55;9.57;;;1.80;;
29362;SDS011;16349;53.672;10.014;2023-12-20T03:11:22;6.60;;;1.83;;
29362;SDS011;16349;53.672;10.014;2023-12-20T03:13:54;9.47;;;1.73;;
29362;SDS011;16349;53.672;10.014;2023-12-20T03:16:21;11.03;;;2.23;;
29362;SDS011;16349;53.672;10.014;2023-12-20T03:18:48;12.07;;;1.87;;
29362;SDS011;16349;53.672;10.014;2023-12-20T03:21:15;9.83;;;1.63;;
29362;SDS011;16349;53.672;10.014;2023-12-20T03:23:41;6.40;;;1.70;;
29362;SDS011;16349;53.672;10.014;2023-12-20T03:26:09;6.67;;;1.23;;
29362;SDS011;16349;53.672;10.014;2023-12-20T03:28:36;9.53;;;1.27;;
29362;SDS011;16349;53.672;10.014;2023-12-20T03:31:04;6.07;;;1.40;;
29362;SDS011;16349;53.672;10.014;2023-12-20T03:33:31;6.53;;;1.73;;
29362;SDS011;16349;53.672;10.014;2023-12-20T03:35:58;14.37;;;1.70;;
29362;SDS011;16349;53.672;10.014;2023-12-20T03:38:28;7.50;;;1.83;;
29362;SDS011;16349;53.672;10.014;2023-12-20T03:40:55;12.37;;;2.30;;
29362;SDS011;16349;53.672;10.014;2023-12-20T03:43:22;7.53;;;1.40;;
29362;SDS011;16349;53.672;10.014;2023-12-20T03:45:48;7.47;;;1.50;;
29362;SDS011;16349;53.672;10.014;2023-12-20T03:48:16;6.43;;;1.47;;
29362;SDS011;16349;53.672;10.014;2023-12-20T03:50:43;12.37;;;1.97;;
29362;SDS011;16349;53.672;10.014;2023-12-20T03:53:10;3.57;;;1.10;;
29362;SDS011;16349;53.672;10.014;2023-12-20T03:55:37;9.17;;;2.23;;
29362;SDS011;16349;53.672;10.014;2023-12-20T03:58:04;10.83;;;1.97;;
29362;SDS011;16349;53.672;10.014;2023-12-20T04:00:30;9.67;;;1.40;;
29362;SDS011;16349;53.672;10.014;2023-12-20T04:02:57;12.00;;;1.57;;
29362;SDS011;16349;53.672;10.014;2023-12-20T04:05:26;13.20;;;1.83;;
29362;SDS011;16349;53.672;10.014;2023-12-20T04:07:52;4.73;;;1.50;;
29362;SDS011;16349;53.672;10.014;2023-12-20T04:10:19;9.30;;;1.27;;
29362;SDS011;16349;53.672;10.014;2023-12-20T04:12:46;11.07;;;2.00;;
29362;SDS011;16349;53.672;10.014;2023-12-20T04:15:13;5.33;;;1.50;;
29362;SDS011;16349;53.672;10.014;2023-12-20T04:17:40;9.03;;;2.00;;
29362;SDS011;16349;53.672;10.014;2023-12-20T04:20:07;8.63;;;2.13;;
29362;SDS011;16349;53.672;10.014;2023-12-20T04:22:36;6.60;;;1.60;;
29362;SDS011;16349;53.672;10.014;2023-12-20T04:25:03;9.43;;;1.53;;
29362;SDS011;16349;53.672;10.014;2023-12-20T04:27:30;4.97;;;1.53;;
29362;SDS011;16349;53.672;10.014;2023-12-20T04:29:57;10.07;;;1.70;;
29362;SDS011;16349;53.672;10.014;2023-12-20T04:32:23;6.27;;;1.50;;
29362;SDS011;16349;53.672;10.014;2023-12-20T04:34:50;6.73;;;1.40;;
29362;SDS011;16349;53.672;10.014;2023-12-20T04:37:17;7.67;;;1.60;;
29362;SDS011;16349;53.672;10.014;2023-12-20T04:39:45;9.60;;;1.80;;
29362;SDS011;16349;53.672;10.014;2023-12-20T04:42:12;7.23;;;1.60;;
29362;SDS011;16349;53.672;10.014;2023-12-20T04:44:39;10.07;;;1.80;;
29362;SDS011;16349;53.672;10.014;2023-12-20T04:47:06;10.83;;;2.10;;
29362;SDS011;16349;53.672;10.014;2023-12-20T04:49:32;9.77;;;2.03;;
29362;SDS011;16349;53.672;10.014;2023-12-20T04:51:59;11.00;;;1.70;;
29362;SDS011;16349;53.672;10.014;2023-12-20T04:54:26;6.33;;;2.07;;
29362;SDS011;16349;53.672;10.014;2023-12-20T04:56:54;7.37;;;1.40;;
29362;SDS011;16349;53.672;10.014;2023-12-20T04:59:22;5.50;;;1.23;;
29362;SDS011;16349;53.672;10.014;2023-12-20T05:01:49;11.30;;;1.63;;
29362;SDS011;16349;53.672;10.014;2023-12-20T05:04:15;6.80;;;2.50;;
29362;SDS011;16349;53.672;10.014;2023-12-20T05:06:42;8.33;;;1.73;;
29362;SDS011;16349;53.672;10.014;2023-12-20T05:09:09;9.70;;;1.40;;
29362;SDS011;16349;53.672;10.014;2023-12-20T05:11:36;4.80;;;0.93;;
29362;SDS011;16349;53.672;10.014;2023-12-20T05:14:04;10.60;;;1.70;;
29362;SDS011;16349;53.672;10.014;2023-12-20T05:16:31;6.43;;;1.60;;
29362;SDS011;16349;53.672;10.014;2023-12-20T05:18:57;7.87;;;1.80;;
29362;SDS011;16349;53.672;10.014;2023-12-20T05:21:26;7.27;;;1.30;;
29362;SDS011;16349;53.672;10.014;2023-12-20T05:23:52;11.23;;;1.80;;
29362;SDS011;16349;53.672;10.014;2023-12-20T05:26:19;8.37;;;1.53;;
29362;SDS011;16349;53.672;10.014;2023-12-20T05:28:46;8.37;;;1.73;;
29362;SDS011;16349;53.672;10.014;2023-12-20T05:31:14;5.77;;;1.70;;
29362;SDS011;16349;53.672;10.014;2023-12-20T05:33:41;8.07;;;1.70;;
29362;SDS011;16349;53.672;10.014;2023-12-20T05:36:07;4.07;;;1.20;;
29362;SDS011;16349;53.672;10.014;2023-12-20T05:38:36;17.03;;;3.33;;
29362;SDS011;16349;53.672;10.014;2023-12-20T05:41:03;10.33;;;2.30;;
29362;SDS011;16349;53.672;10.014;2023-12-20T05:43:30;7.43;;;1.43;;
29362;SDS011;16349;53.672;10.014;2023-12-20T05:45:56;10.00;;;2.23;;
29362;SDS011;16349;53.672;10.014;2023-12-20T05:48:24;7.30;;;1.73;;
29362;SDS011;16349;53.672;10.014;2023-12-20T05:50:52;10.23;;;1.50;;
29362;SDS011;16349;53.672;10.014;2023-12-20T05:53:19;7.27;;;1.73;;
29362;SDS011;16349;53.672;10.014;2023-12-20T05:55:45;5.13;;;1.27;;
29362;SDS011;16349;53.672;10.014;2023-12-20T05:58:12;8.07;;;1.60;;
29362;SDS011;16349;53.672;10.014;2023-12-20T06:00:39;10.00;;;2.30;;
29362;SDS011;16349;53.672;10.014;2023-12-20T06:03:06;9.70;;;1.80;;
29362;SDS011;16349;53.672;10.014;2023-12-20T06:05:34;2.10;;;1.27;;
29362;SDS011;16349;53.672;10.014;2023-12-20T06:08:01;10.93;;;1.90;;
29362;SDS011;16349;53.672;10.014;2023-12-20T06:10:28;7.53;;;1.90;;
29362;SDS011;16349;53.672;10.014;2023-12-20T06:12:54;7.80;;;2.07;;
29362;SDS011;16349;53.672;10.014;2023-12-20T06:15:23;7.43;;;1.70;;
29362;SDS011;16349;53.672;10.014;2023-12-20T06:17:50;11.87;;;1.80;;
29362;SDS011;16349;53.672;10.014;2023-12-20T06:20:17;15.17;;;1.80;;
29362;SDS011;16349;53.672;10.014;2023-12-20T06:22:45;8.37;;;2.30;;
29362;SDS011;16349;53.672;10.014;2023-12-20T06:25:12;6.67;;;1.70;;
29362;SDS011;16349;53.672;10.014;2023-12-20T06:27:39;15.13;;;2.33;;
29362;SDS011;16349;53.672;10.014;2023-12-20T06:30:07;12.23;;;1.77;;
29362;SDS011;16349;53.672;10.014;2023-12-20T06:32:35;10.43;;;2.17;;
29362;SDS011;16349;53.672;10.014;2023-12-20T06:35:03;16.03;;;2.63;;
29362;SDS011;16349;53.672;10.014;2023-12-20T06:37:31;13.07;;;2.73;;
29362;SDS011;16349;53.672;10.014;2023-12-20T06:39:59;12.67;;;2.17;;
29362;SDS011;16349;53.672;10.014;2023-12-20T06:42:26;12.07;;;2.30;;
29362;SDS011;16349;53.672;10.014;2023-12-20T06:44:52;11.83;;;2.27;;
29362;SDS011;16349;53.672;10.014;2023-12-20T06:47:19;9.40;;;2.10;;
29362;SDS011;16349;53.672;10.014;2023-12-20T06:49:46;6.60;;;1.50;;
29362;SDS011;16349;53.672;10.014;2023-12-20T06:52:13;13.90;;;2.23;;
29362;SDS011;16349;53.672;10.014;2023-12-20T06:54:40;8.27;;;2.20;;
29362;SDS011;16349;53.672;10.014;2023-12-20T06:57:08;10.77;;;2.03;;
29362;SDS011;16349;53.672;10.014;2023-12-20T06:59:37;10.63;;;1.50;;
29362;SDS011;16349;53.672;10.014;2023-12-20T07:02:05;11.30;;;2.23;;
29362;SDS011;16349;53.672;10.014;2023-12-20T07:04:32;9.83;;;2.07;;
29362;SDS011;16349;53.672;10.014;2023-12-20T07:06:59;9.97;;;2.50;;
29362;SDS011;16349;53.672;10.014;2023-12-20T07:09:26;14.80;;;2.00;;
29362;SDS011;16349;53.672;10.014;2023-12-20T07:11:53;9.77;;;1.83;;
29362;SDS011;16349;53.672;10.014;2023-12-20T07:14:21;8.47;;;1.90;;
29362;SDS011;16349;53.672;10.014;2023-12-20T07:16:47;14.30;;;2.40;;
29362;SDS011;16349;53.672;10.014;2023-12-20T07:19:14;10.53;;;2.30;;
29362;SDS011;16349;53.672;10.014;2023-12-20T07:21:41;10.83;;;2.23;;
29362;SDS011;16349;53.672;10.014;2023-12-20T07:24:08;10.93;;;2.10;;
29362;SDS011;16349;53.672;10.014;2023-12-20T07:26:35;12.30;;;2.67;;
29362;SDS011;16349;53.672;10.014;2023-12-20T07:29:02;12.33;;;3.20;;
29362;SDS011;16349;53.672;10.014;2023-12-20T07:31:31;9.17;;;2.23;;
29362;SDS011;16349;53.672;10.014;2023-12-20T07:33:57;12.97;;;2.50;;
29362;SDS011;16349;53.672;10.014;2023-12-20T07:36:24;8.93;;;2.43;;
29362;SDS011;16349;53.672;10.014;2023-12-20T07:38:51;9.53;;;2.70;;
29362;SDS011;16349;53.672;10.014;2023-12-20T07:41:18;13.00;;;2.53;;
29362;SDS011;16349;53.672;10.014;2023-12-20T07:43:47;13.97;;;2.63;;
29362;SDS011;16349;53.672;10.014;2023-12-20T07:46:14;14.33;;;2.43;;
29362;SDS011;16349;53.672;10.014;2023-12-20T07:48:42;11.30;;;2.10;;
29362;SDS011;16349;53.672;10.014;2023-12-20T07:51:09;14.77;;;2.20;;
29362;SDS011;16349;53.672;10.014;2023-12-20T07:53:36;16.37;;;2.17;;
29362;SDS011;16349;53.672;10.014;2023-12-20T07:56:13;14.63;;;2.53;;
29362;SDS011;16349;53.672;10.014;2023-12-20T07:58:40;8.33;;;2.07;;
29362;SDS011;16349;53.672;10.014;2023-12-20T08:01:07;12.80;;;2.77;;
29362;SDS011;16349;53.672;10.014;2023-12-20T08:03:33;10.70;;;2.13;;
29362;SDS011;16349;53.672;10.014;2023-12-20T08:06:02;8.57;;;2.00;;
29362;SDS011;16349;53.672;10.014;2023-12-20T08:08:29;15.30;;;2.37;;
29362;SDS011;16349;53.672;10.014;2023-12-20T08:10:56;16.00;;;2.43;;
29362;SDS011;16349;53.672;10.014;2023-12-20T08:13:25;12.27;;;2.00;;
29362;SDS011;16349;53.672;10.014;2023-12-20T08:15:52;11.73;;;2.33;;
29362;SDS011;16349;53.672;10.014;2023-12-20T08:18:21;12.00;;;2.80;;
29362;SDS011;16349;53.672;10.014;2023-12-20T08:20:48;18.90;;;3.43;;
29362;SDS011;16349;53.672;10.014;2023-12-20T08:23:19;13.40;;;2.43;;
29362;SDS011;16349;53.672;10.014;2023-12-20T08:25:46;13.00;;;3.07;;
29362;SDS011;16349;53.672;10.014;2023-12-20T08:28:14;8.63;;;2.17;;
29362;SDS011;16349;53.672;10.014;2023-12-20T08:30:40;9.20;;;1.40;;
29362;SDS011;16349;53.672;10.014;2023-12-20T08:33:07;7.17;;;2.73;;
29362;SDS011;16349;53.672;10.014;2023-12-20T08:35:38;11.40;;;2.10;;
29362;SDS011;16349;53.672;10.014;2023-12-20T08:38:05;9.07;;;1.97;;
29362;SDS011;16349;53.672;10.014;2023-12-20T08:40:33;4.30;;;1.90;;
29362;SDS011;16349;53.672;10.014;2023-12-20T08:43:00;10.53;;;2.47;;
29362;SDS011;16349;53.672;10.014;2023-12-20T08:45:27;9.53;;;2.60;;
29362;SDS011;16349;53.672;10.014;2023-12-20T08:47:54;10.10;;;2.50;;
29362;SDS011;16349;53.672;10.014;2023-12-20T08:50:21;8.97;;;2.23;;
29362;SDS011;16349;53.672;10.014;2023-12-20T08:52:48;10.27;;;2.40;;
29362;SDS011;16349;53.672;10.014;2023-12-20T08:55:15;5.90;;;2.20;;
29362;SDS011;16349;53.672;10.014;2023-12-20T08:57:44;10.77;;;2.23;;
29362;SDS011;16349;53.672;10.014;2023-12-20T09:00:11;13.53;;;2.17;;
29362;SDS011;16349;53.672;10.014;2023-12-20T09:02:39;11.40;;;2.50;;
29362;SDS011;16349;53.672;10.014;2023-12-20T09:05:06;10.43;;;2.50;;
29362;SDS011;16349;53.672;10.014;2023-12-20T09:07:33;7.13;;;2.03;;
29362;SDS011;16349;53.672;10.014;2023-12-20T09:10:01;9.67;;;2.30;;
29362;SDS011;16349;53.672;10.014;2023-12-20T09:12:28;14.30;;;2.40;;
29362;SDS011;16349;53.672;10.014;2023-12-20T09:14:57;7.33;;;2.00;;
29362;SDS011;16349;53.672;10.014;2023-12-20T09:17:23;7.30;;;1.95;;
29362;SDS011;16349;53.672;10.014;2023-12-20T09:19:50;6.67;;;1.73;;
29362;SDS011;16349;53.672;10.014;2023-12-20T09:22:19;15.87;;;1.97;;
29362;SDS011;16349;53.672;10.014;2023-12-20T09:24:45;8.60;;;1.60;;
29362;SDS011;16349;53.672;10.014;2023-12-20T09:27:12;6.93;;;1.33;;
29362;SDS011;16349;53.672;10.014;2023-12-20T09:29:39;3.63;;;1.20;;
29362;SDS011;16349;53.672;10.014;2023-12-20T09:32:07;3.63;;;0.93;;
29362;SDS011;16349;53.672;10.014;2023-12-20T09:34:34;4.20;;;1.10;;
29362;SDS011;16349;53.672;10.014;2023-12-20T09:37:02;3.60;;;0.70;;
29362;SDS011;16349;53.672;10.014;2023-12-20T09:39:30;3.43;;;0.70;;
29362;SDS011;16349;53.672;10.014;2023-12-20T09:42:00;3.97;;;0.80;;
29362;SDS011;16349;53.672;10.014;2023-12-20T09:44:27;3.30;;;0.70;;
29362;SDS011;16349;53.672;10.014;2023-12-20T09:46:55;1.30;;;0.30;;
29362;SDS011;16349;53.672;10.014;2023-12-20T09:49:24;0.73;;;0.40;;
29362;SDS011;16349;53.672;10.014;2023-12-20T09:51:54;1.70;;;0.40;;
29362;SDS011;16349;53.672;10.014;2023-12-20T09:54:21;0.70;;;0.30;;
29362;SDS011;16349;53.672;10.014;2023-12-20T09:56:49;0.67;;;0.40;;
29362;SDS011;16349;53.672;10.014;2023-12-20T09:59:16;4.97;;;0.50;;
29362;SDS011;16349;53.672;10.014;2023-12-20T10:01:43;1.40;;;0.30;;
29362;SDS011;16349;53.672;10.014;2023-12-20T10:04:10;1.90;;;0.70;;
29362;SDS011;16349;53.672;10.014;2023-12-20T10:06:41;0.73;;;0.60;;
29362;SDS011;16349;53.672;10.014;2023-12-20T10:09:08;0.40;;;0.30;;
29362;SDS011;16349;53.672;10.014;2023-12-20T10:11:35;1.93;;;0.50;;
29362;SDS011;16349;53.672;10.014;2023-12-20T10:14:03;0.83;;;0.30;;
29362;SDS011;16349;53.672;10.014;2023-12-20T10:16:30;0.70;;;0.20;;
29362;SDS011;16349;53.672;10.014;2023-12-20T10:18:58;0.60;;;0.27;;
29362;SDS011;16349;53.672;10.014;2023-12-20T10:21:26;0.30;;;0.30;;
29362;SDS011;16349;53.672;10.014;2023-12-20T10:23:54;2.30;;;0.40;;
29362;SDS011;16349;53.672;10.014;2023-12-20T10:26:22;2.07;;;0.53;;
29362;SDS011;16349;53.672;10.014;2023-12-20T10:28:50;6.73;;;0.90;;
29362;SDS011;16349;53.672;10.014;2023-12-20T10:31:27;3.43;;;1.00;;
29362;SDS011;16349;53.672;10.014;2023-12-20T10:33:56;2.60;;;0.80;;
29362;SDS011;16349;53.672;10.014;2023-12-20T10:36:24;3.60;;;0.60;;
29362;SDS011;16349;53.672;10.014;2023-12-20T10:38:53;2.37;;;0.70;;
29362;SDS011;16349;53.672;10.014;2023-12-20T10:41:24;2.27;;;0.60;;
29362;SDS011;16349;53.672;10.014;2023-12-20T10:43:54;5.13;;;0.90;;
29362;SDS011;16349;53.672;10.014;2023-12-20T10:46:24;2.97;;;0.70;;
29362;SDS011;16349;53.672;10.014;2023-12-20T10:48:53;3.63;;;0.80;;
29362;SDS011;16349;53.672;10.014;2023-12-20T10:51:21;6.63;;;0.70;;
29362;SDS011;16349;53.672;10.014;2023-12-20T10:53:49;7.23;;;1.03;;
29362;SDS011;16349;53.672;10.014;2023-12-20T10:56:18;3.70;;;0.70;;
29362;SDS011;16349;53.672;10.014;2023-12-20T10:58:46;1.67;;;0.73;;
29362;SDS011;16349;53.672;10.014;2023-12-20T11:01:13;3.67;;;0.67;;
29362;SDS011;16349;53.672;10.014;2023-12-20T11:03:43;2.97;;;0.60;;
29362;SDS011;16349;53.672;10.014;2023-12-20T11:06:18;3.53;;;0.60;;
29362;SDS011;16349;53.672;10.014;2023-12-20T11:08:55;1.73;;;0.77;;
29362;SDS011;16349;53.672;10.014;2023-12-20T11:11:37;6.03;;;0.70;;
29362;SDS011;16349;53.672;10.014;2023-12-20T11:14:13;5.83;;;1.10;;
29362;SDS011;16349;53.672;10.014;2023-12-20T11:16:44;2.90;;;0.90;;
29362;SDS011;16349;53.672;10.014;2023-12-20T11:19:12;5.87;;;0.70;;
29362;SDS011;16349;53.672;10.014;2023-12-20T11:21:39;3.53;;;0.67;;
29362;SDS011;16349;53.672;10.014;2023-12-20T11:24:07;3.63;;;0.77;;
29362;SDS011;16349;53.672;10.014;2023-12-20T11:26:33;3.20;;;0.90;;
29362;SDS011;16349;53.672;10.014;2023-12-20T11:32:00;6.10;;;0.90;;
29362;SDS011;16349;53.672;10.014;2023-12-20T11:34:29;5.87;;;0.80;;
29362;SDS011;16349;53.672;10.014;2023-12-20T11:36:58;7.23;;;1.10;;
29362;SDS011;16349;53.672;10.014;2023-12-20T11:39:26;5.57;;;1.13;;
29362;SDS011;16349;53.672;10.014;2023-12-20T11:41:55;7.43;;;1.40;;
29362;SDS011;16349;53.672;10.014;2023-12-20T11:44:24;4.20;;;0.87;;
29362;SDS011;16349;53.672;10.014;2023-12-20T11:46:52;8.23;;;1.27;;
29362;SDS011;16349;53.672;10.014;2023-12-20T11:49:22;10.53;;;2.10;;
29362;SDS011;16349;53.672;10.014;2023-12-20T11:51:50;2.70;;;0.80;;
29362;SDS011;16349;53.672;10.014;2023-12-20T11:54:17;9.77;;;1.93;;
29362;SDS011;16349;53.672;10.014;2023-12-20T11:56:44;5.40;;;0.80;;
29362;SDS011;16349;53.672;10.014;2023-12-20T11:59:12;6.07;;;1.90;;
29362;SDS011;16349;53.672;10.014;2023-12-20T12:01:40;5.63;;;0.90;;
29362;SDS011;16349;53.672;10.014;2023-12-20T12:04:14;8.90;;;1.57;;
29362;SDS011;16349;53.672;10.014;2023-12-20T12:06:42;7.50;;;1.07;;
29362;SDS011;16349;53.672;10.014;2023-12-20T12:09:09;8.53;;;1.47;;
29362;SDS011;16349;53.672;10.014;2023-12-20T12:11:36;13.43;;;2.80;;
29362;SDS011;16349;53.672;10.014;2023-12-20T12:14:03;15.97;;;2.17;;
29362;SDS011;16349;53.672;10.014;2023-12-20T12:16:31;8.60;;;1.87;;
29362;SDS011;16349;53.672;10.014;2023-12-20T12:18:58;12.87;;;1.40;;
29362;SDS011;16349;53.672;10.014;2023-12-20T12:21:25;8.43;;;2.33;;
29362;SDS011;16349;53.672;10.014;2023-12-20T12:23:52;5.27;;;1.50;;
29362;SDS011;16349;53.672;10.014;2023-12-20T12:26:19;11.03;;;1.50;;
29362;SDS011;16349;53.672;10.014;2023-12-20T12:28:46;12.57;;;2.00;;
29362;SDS011;16349;53.672;10.014;2023-12-20T12:31:13;13.47;;;2.40;;
29362;SDS011;16349;53.672;10.014;2023-12-20T12:33:42;17.87;;;2.57;;
29362;SDS011;16349;53.672;10.014;2023-12-20T12:36:09;14.20;;;2.13;;
29362;SDS011;16349;53.672;10.014;2023-12-20T12:38:37;10.77;;;1.90;;
29362;SDS011;16349;53.672;10.014;2023-12-20T12:41:04;13.77;;;2.40;;
29362;SDS011;16349;53.672;10.014;2023-12-20T12:43:32;8.57;;;1.87;;
29362;SDS011;16349;53.672;10.014;2023-12-20T12:45:59;14.33;;;2.27;;
29362;SDS011;16349;53.672;10.014;2023-12-20T12:48:25;8.20;;;1.90;;
29362;SDS011;16349;53.672;10.014;2023-12-20T12:50:54;11.50;;;2.20;;
29362;SDS011;16349;53.672;10.014;2023-12-20T12:53:24;15.93;;;2.83;;
29362;SDS011;16349;53.672;10.014;2023-12-20T12:55:52;17.70;;;2.33;;
29362;SDS011;16349;53.672;10.014;2023-12-20T12:58:19;7.47;;;2.77;;
29362;SDS011;16349;53.672;10.014;2023-12-20T13:00:47;11.13;;;2.93;;
29362;SDS011;16349;53.672;10.014;2023-12-20T13:03:14;15.83;;;2.83;;
29362;SDS011;16349;53.672;10.014;2023-12-20T13:05:41;15.00;;;2.57;;
29362;SDS011;16349;53.672;10.014;2023-12-20T13:08:10;14.40;;;2.17;;
29362;SDS011;16349;53.672;10.014;2023-12-20T13:10:37;10.70;;;2.50;;
29362;SDS011;16349;53.672;10.014;2023-12-20T13:13:04;10.10;;;2.37;;
29362;SDS011;16349;53.672;10.014;2023-12-20T13:15:31;6.70;;;1.80;;
29362;SDS011;16349;53.672;10.014;2023-12-20T13:17:58;12.47;;;2.50;;
29362;SDS011;16349;53.672;10.014;2023-12-20T13:20:25;13.40;;;2.47;;
29362;SDS011;16349;53.672;10.014;2023-12-20T13:22:52;9.73;;;2.40;;
29362;SDS011;16349;53.672;10.014;2023-12-20T13:25:20;12.27;;;2.20;;
29362;SDS011;16349;53.672;10.014;2023-12-20T13:27:46;12.33;;;2.07;;
29362;SDS011;16349;53.672;10.014;2023-12-20T13:30:14;10.87;;;2.27;;
29362;SDS011;16349;53.672;10.014;2023-12-20T13:32:42;17.30;;;2.77;;
29362;SDS011;16349;53.672;10.014;2023-12-20T13:35:10;11.53;;;2.27;;
29362;SDS011;16349;53.672;10.014;2023-12-20T13:37:38;11.53;;;2.37;;
29362;SDS011;16349;53.672;10.014;2023-12-20T13:40:05;6.63;;;2.30;;
29362;SDS011;16349;53.672;10.014;2023-12-20T13:42:34;10.33;;;3.07;;
29362;SDS011;16349;53.672;10.014;2023-12-20T13:45:01;10.50;;;3.00;;
29362;SDS011;16349;53.672;10.014;2023-12-20T13:47:30;13.07;;;3.20;;
29362;SDS011;16349;53.672;10.014;2023-12-20T13:49:56;16.53;;;3.43;;
29362;SDS011;16349;53.672;10.014;2023-12-20T13:52:23;16.33;;;3.20;;
29362;SDS011;16349;53.672;10.014;2023-12-20T13:54:50;12.97;;;2.67;;
29362;SDS011;16349;53.672;10.014;2023-12-20T13:57:17;10.80;;;2.90;;
29362;SDS011;16349;53.672;10.014;2023-12-20T13:59:45;12.53;;;3.73;;
29362;SDS011;16349;53.672;10.014;2023-12-20T14:02:12;12.50;;;3.40;;
29362;SDS011;16349;53.672;10.014;2023-12-20T14:04:39;19.43;;;4.03;;
29362;SDS011;16349;53.672;10.014;2023-12-20T14:07:06;9.83;;;2.57;;
29362;SDS011;16349;53.672;10.014;2023-12-20T14:09:33;13.23;;;2.93;;
29362;SDS011;16349;53.672;10.014;2023-12-20T14:12:00;8.77;;;3.33;;
29362;SDS011;16349;53.672;10.014;2023-12-20T14:14:27;9.00;;;3.20;;
29362;SDS011;16349;53.672;10.014;2023-12-20T14:16:55;12.70;;;3.20;;
29362;SDS011;16349;53.672;10.014;2023-12-20T14:19:22;13.93;;;3.17;;
29362;SDS011;16349;53.672;10.014;2023-12-20T14:21:48;17.93;;;2.77;;
29362;SDS011;16349;53.672;10.014;2023-12-20T14:24:15;14.80;;;3.57;;
29362;SDS011;16349;53.672;10.014;2023-12-20T14:26:42;8.60;;;3.00;;
29362;SDS011;16349;53.672;10.014;2023-12-20T14:29:09;10.83;;;3.30;;
29362;SDS011;16349;53.672;10.014;2023-12-20T14:31:36;12.00;;;3.50;;
29362;SDS011;16349;53.672;10.014;2023-12-20T14:34:05;13.63;;;3.17;;